sensor_id;sensor_type;location;lat;lon;timestamp;P1;durP1;ratioP1;P2;durP2;ratioP2
64457;SDS011;58438;51.200;7.252;2023-01-13T00:01:16;2.15;;;1.20;;
64457;SDS011;58438;51.200;7.252;2023-01-13T00:04:03;1.25;;;1.08;;
64457;SDS011;58438;51.200;7.252;2023-01-13T00:06:50;1.70;;;1.27;;
64457;SDS011;58438;51.200;7.252;2023-01-13T00:09:37;1.80;;;0.98;;
64457;SDS011;58438;51.200;7.252;2023-01-13T00:12:25;1.40;;;1.05;;
64457;SDS011;58438;51.200;7.252;2023-01-13T00:15:12;1.50;;;1.13;;
64457;SDS011;58438;51.200;7.252;2023-01-13T00:17:59;1.88;;;1.42;;
64457;SDS011;58438;51.200;7.252;2023-01-13T00:20:46;1.58;;;1.13;;
64457;SDS011;58438;51.200;7.252;2023-01-13T00:23:33;1.27;;;1.02;;
64457;SDS011;58438;51.200;7.252;2023-01-13T00:26:21;2.20;;;1.33;;
64457;SDS011;58438;51.200;7.252;2023-01-13T00:29:10;2.38;;;1.30;;
64457;SDS011;58438;51.200;7.252;2023-01-13T00:31:57;1.92;;;1.23;;
64457;SDS011;58438;51.200;7.252;2023-01-13T00:34:44;3.78;;;1.70;;
64457;SDS011;58438;51.200;7.252;2023-01-13T00:37:31;2.65;;;1.70;;
64457;SDS011;58438;51.200;7.252;2023-01-13T00:40:20;1.75;;;1.60;;
64457;SDS011;58438;51.200;7.252;2023-01-13T00:43:07;2.40;;;1.38;;
64457;SDS011;58438;51.200;7.252;2023-01-13T00:46:10;2.08;;;1.33;;
64457;SDS011;58438;51.200;7.252;2023-01-13T00:48:58;2.20;;;1.30;;
64457;SDS011;58438;51.200;7.252;2023-01-13T00:51:44;1.50;;;1.40;;
64457;SDS011;58438;51.200;7.252;2023-01-13T00:54:31;2.33;;;1.35;;
64457;SDS011;58438;51.200;7.252;2023-01-13T00:57:18;3.03;;;1.30;;
64457;SDS011;58438;51.200;7.252;2023-01-13T01:00:05;3.05;;;1.25;;
64457;SDS011;58438;51.200;7.252;2023-01-13T01:02:54;1.10;;;0.88;;
64457;SDS011;58438;51.200;7.252;2023-01-13T01:05:41;4.05;;;1.10;;
64457;SDS011;58438;51.200;7.252;2023-01-13T01:08:28;0.93;;;0.82;;
64457;SDS011;58438;51.200;7.252;2023-01-13T01:11:16;6.22;;;1.48;;
64457;SDS011;58438;51.200;7.252;2023-01-13T01:14:04;3.58;;;0.93;;
64457;SDS011;58438;51.200;7.252;2023-01-13T01:16:50;0.95;;;0.85;;
64457;SDS011;58438;51.200;7.252;2023-01-13T01:19:39;1.00;;;0.85;;
64457;SDS011;58438;51.200;7.252;2023-01-13T01:22:27;6.40;;;1.02;;
64457;SDS011;58438;51.200;7.252;2023-01-13T01:25:15;1.10;;;0.90;;
64457;SDS011;58438;51.200;7.252;2023-01-13T01:28:04;4.25;;;0.88;;
64457;SDS011;58438;51.200;7.252;2023-01-13T01:30:53;1.20;;;0.80;;
64457;SDS011;58438;51.200;7.252;2023-01-13T01:33:44;1.55;;;0.90;;
64457;SDS011;58438;51.200;7.252;2023-01-13T01:36:34;2.70;;;1.27;;
64457;SDS011;58438;51.200;7.252;2023-01-13T01:39:22;2.03;;;0.95;;
64457;SDS011;58438;51.200;7.252;2023-01-13T01:42:12;2.70;;;1.15;;
64457;SDS011;58438;51.200;7.252;2023-01-13T01:45:21;4.43;;;1.27;;
64457;SDS011;58438;51.200;7.252;2023-01-13T01:48:11;3.38;;;0.88;;
64457;SDS011;58438;51.200;7.252;2023-01-13T01:50:58;1.40;;;1.02;;
64457;SDS011;58438;51.200;7.252;2023-01-13T01:53:48;4.18;;;1.30;;
64457;SDS011;58438;51.200;7.252;2023-01-13T01:56:39;1.98;;;1.38;;
64457;SDS011;58438;51.200;7.252;2023-01-13T01:59:30;2.95;;;1.10;;
64457;SDS011;58438;51.200;7.252;2023-01-13T02:02:21;1.25;;;1.00;;
64457;SDS011;58438;51.200;7.252;2023-01-13T02:05:08;3.88;;;1.10;;
64457;SDS011;58438;51.200;7.252;2023-01-13T02:07:57;2.17;;;1.10;;
64457;SDS011;58438;51.200;7.252;2023-01-13T02:10:52;5.57;;;1.00;;
64457;SDS011;58438;51.200;7.252;2023-01-13T02:13:41;3.33;;;1.00;;
64457;SDS011;58438;51.200;7.252;2023-01-13T02:16:31;1.00;;;0.88;;
64457;SDS011;58438;51.200;7.252;2023-01-13T02:19:24;4.10;;;1.00;;
64457;SDS011;58438;51.200;7.252;2023-01-13T02:22:53;1.70;;;0.93;;
64457;SDS011;58438;51.200;7.252;2023-01-13T02:26:35;1.77;;;0.68;;
64457;SDS011;58438;51.200;7.252;2023-01-13T02:29:59;3.10;;;1.00;;
64457;SDS011;58438;51.200;7.252;2023-01-13T02:33:25;1.65;;;0.73;;
64457;SDS011;58438;51.200;7.252;2023-01-13T02:36:26;4.13;;;0.82;;
64457;SDS011;58438;51.200;7.252;2023-01-13T02:39:21;1.08;;;0.65;;
64457;SDS011;58438;51.200;7.252;2023-01-13T02:42:15;2.37;;;1.77;;
64457;SDS011;58438;51.200;7.252;2023-01-13T02:45:30;2.40;;;0.80;;
64457;SDS011;58438;51.200;7.252;2023-01-13T02:48:24;3.47;;;0.80;;
64457;SDS011;58438;51.200;7.252;2023-01-13T02:51:16;2.47;;;0.80;;
64457;SDS011;58438;51.200;7.252;2023-01-13T02:54:09;1.40;;;0.82;;
64457;SDS011;58438;51.200;7.252;2023-01-13T02:57:01;2.13;;;0.77;;
64457;SDS011;58438;51.200;7.252;2023-01-13T02:59:53;3.83;;;0.95;;
64457;SDS011;58438;51.200;7.252;2023-01-13T03:02:43;4.90;;;0.90;;
64457;SDS011;58438;51.200;7.252;2023-01-13T03:05:31;3.28;;;0.88;;
64457;SDS011;58438;51.200;7.252;2023-01-13T03:08:25;3.75;;;0.95;;
64457;SDS011;58438;51.200;7.252;2023-01-13T03:11:19;3.58;;;0.90;;
64457;SDS011;58438;51.200;7.252;2023-01-13T03:14:14;2.42;;;0.70;;
64457;SDS011;58438;51.200;7.252;2023-01-13T03:17:11;6.28;;;1.10;;
64457;SDS011;58438;51.200;7.252;2023-01-13T03:20:08;1.92;;;0.82;;
64457;SDS011;58438;51.200;7.252;2023-01-13T03:23:04;4.30;;;1.00;;
64457;SDS011;58438;51.200;7.252;2023-01-13T03:25:58;1.58;;;0.90;;
64457;SDS011;58438;51.200;7.252;2023-01-13T03:28:53;2.70;;;0.80;;
64457;SDS011;58438;51.200;7.252;2023-01-13T03:31:45;5.03;;;1.00;;
64457;SDS011;58438;51.200;7.252;2023-01-13T03:34:42;5.13;;;1.08;;
64457;SDS011;58438;51.200;7.252;2023-01-13T03:37:36;3.70;;;0.80;;
64457;SDS011;58438;51.200;7.252;2023-01-13T03:40:27;1.13;;;0.63;;
64457;SDS011;58438;51.200;7.252;2023-01-13T03:43:19;2.42;;;0.77;;
64457;SDS011;58438;51.200;7.252;2023-01-13T03:46:30;2.78;;;0.90;;
64457;SDS011;58438;51.200;7.252;2023-01-13T03:49:23;2.85;;;0.77;;
64457;SDS011;58438;51.200;7.252;2023-01-13T03:52:16;2.60;;;1.13;;
64457;SDS011;58438;51.200;7.252;2023-01-13T03:55:14;1.85;;;0.80;;
64457;SDS011;58438;51.200;7.252;2023-01-13T03:58:06;3.85;;;0.90;;
64457;SDS011;58438;51.200;7.252;2023-01-13T04:01:01;2.80;;;0.93;;
64457;SDS011;58438;51.200;7.252;2023-01-13T04:03:59;4.53;;;1.10;;
64457;SDS011;58438;51.200;7.252;2023-01-13T04:06:52;2.83;;;1.00;;
64457;SDS011;58438;51.200;7.252;2023-01-13T04:12:35;2.25;;;1.00;;
64457;SDS011;58438;51.200;7.252;2023-01-13T04:15:44;3.67;;;1.45;;
64457;SDS011;58438;51.200;7.252;2023-01-13T04:18:35;2.85;;;0.90;;
64457;SDS011;58438;51.200;7.252;2023-01-13T04:21:25;4.30;;;1.30;;
64457;SDS011;58438;51.200;7.252;2023-01-13T04:24:14;5.00;;;1.30;;
64457;SDS011;58438;51.200;7.252;2023-01-13T04:27:02;4.97;;;1.27;;
64457;SDS011;58438;51.200;7.252;2023-01-13T04:29:50;6.72;;;1.38;;
64457;SDS011;58438;51.200;7.252;2023-01-13T04:32:38;5.53;;;1.45;;
64457;SDS011;58438;51.200;7.252;2023-01-13T04:35:26;6.80;;;1.45;;
64457;SDS011;58438;51.200;7.252;2023-01-13T04:38:14;3.78;;;1.23;;
64457;SDS011;58438;51.200;7.252;2023-01-13T04:41:03;3.05;;;0.90;;
64457;SDS011;58438;51.200;7.252;2023-01-13T04:43:50;4.35;;;0.98;;
64457;SDS011;58438;51.200;7.252;2023-01-13T04:46:39;5.05;;;1.45;;
64457;SDS011;58438;51.200;7.252;2023-01-13T04:49:27;7.90;;;1.45;;
64457;SDS011;58438;51.200;7.252;2023-01-13T04:52:15;6.57;;;1.25;;
64457;SDS011;58438;51.200;7.252;2023-01-13T04:55:02;4.43;;;1.20;;
64457;SDS011;58438;51.200;7.252;2023-01-13T04:57:50;5.63;;;1.30;;
64457;SDS011;58438;51.200;7.252;2023-01-13T05:00:37;4.90;;;1.73;;
64457;SDS011;58438;51.200;7.252;2023-01-13T05:03:26;6.88;;;1.40;;
64457;SDS011;58438;51.200;7.252;2023-01-13T05:06:14;7.20;;;1.30;;
64457;SDS011;58438;51.200;7.252;2023-01-13T05:09:01;7.10;;;1.23;;
64457;SDS011;58438;51.200;7.252;2023-01-13T05:11:48;6.97;;;1.27;;
64457;SDS011;58438;51.200;7.252;2023-01-13T05:14:53;4.95;;;1.38;;
64457;SDS011;58438;51.200;7.252;2023-01-13T05:17:58;6.60;;;1.95;;
64457;SDS011;58438;51.200;7.252;2023-01-13T05:20:48;8.02;;;1.52;;
64457;SDS011;58438;51.200;7.252;2023-01-13T05:23:35;4.97;;;1.73;;
64457;SDS011;58438;51.200;7.252;2023-01-13T05:26:40;7.00;;;1.65;;
64457;SDS011;58438;51.200;7.252;2023-01-13T05:29:28;7.65;;;1.50;;
64457;SDS011;58438;51.200;7.252;2023-01-13T05:32:15;10.23;;;1.80;;
64457;SDS011;58438;51.200;7.252;2023-01-13T05:35:04;9.93;;;2.10;;
64457;SDS011;58438;51.200;7.252;2023-01-13T05:37:53;7.80;;;1.73;;
64457;SDS011;58438;51.200;7.252;2023-01-13T05:40:40;11.65;;;1.75;;
64457;SDS011;58438;51.200;7.252;2023-01-13T05:43:51;9.27;;;1.58;;
64457;SDS011;58438;51.200;7.252;2023-01-13T05:46:37;4.35;;;1.40;;
64457;SDS011;58438;51.200;7.252;2023-01-13T05:49:27;4.60;;;1.83;;
64457;SDS011;58438;51.200;7.252;2023-01-13T05:52:14;7.80;;;1.23;;
64457;SDS011;58438;51.200;7.252;2023-01-13T05:55:03;4.68;;;1.50;;
64457;SDS011;58438;51.200;7.252;2023-01-13T05:57:51;7.85;;;2.13;;
64457;SDS011;58438;51.200;7.252;2023-01-13T06:00:38;8.00;;;1.85;;
64457;SDS011;58438;51.200;7.252;2023-01-13T06:03:26;4.65;;;1.52;;
64457;SDS011;58438;51.200;7.252;2023-01-13T06:06:14;10.32;;;2.58;;
64457;SDS011;58438;51.200;7.252;2023-01-13T06:09:02;5.68;;;1.40;;
64457;SDS011;58438;51.200;7.252;2023-01-13T06:11:51;4.57;;;1.27;;
64457;SDS011;58438;51.200;7.252;2023-01-13T06:14:38;5.15;;;1.40;;
64457;SDS011;58438;51.200;7.252;2023-01-13T06:17:26;9.00;;;1.80;;
64457;SDS011;58438;51.200;7.252;2023-01-13T06:20:14;6.10;;;1.85;;
64457;SDS011;58438;51.200;7.252;2023-01-13T06:23:03;7.43;;;1.90;;
64457;SDS011;58438;51.200;7.252;2023-01-13T06:25:57;8.30;;;1.85;;
64457;SDS011;58438;51.200;7.252;2023-01-13T06:28:49;5.45;;;1.88;;
64457;SDS011;58438;51.200;7.252;2023-01-13T06:31:37;4.72;;;1.42;;
64457;SDS011;58438;51.200;7.252;2023-01-13T06:34:25;4.57;;;1.10;;
64457;SDS011;58438;51.200;7.252;2023-01-13T06:37:13;6.93;;;2.28;;
64457;SDS011;58438;51.200;7.252;2023-01-13T06:40:05;7.50;;;1.67;;
64457;SDS011;58438;51.200;7.252;2023-01-13T06:42:53;3.60;;;1.27;;
64457;SDS011;58438;51.200;7.252;2023-01-13T06:46:02;4.32;;;0.88;;
64457;SDS011;58438;51.200;7.252;2023-01-13T06:48:50;6.43;;;1.50;;
64457;SDS011;58438;51.200;7.252;2023-01-13T06:51:37;8.68;;;1.77;;
64457;SDS011;58438;51.200;7.252;2023-01-13T06:54:25;4.65;;;1.23;;
64457;SDS011;58438;51.200;7.252;2023-01-13T06:57:13;5.25;;;1.20;;
64457;SDS011;58438;51.200;7.252;2023-01-13T07:00:00;3.47;;;1.10;;
64457;SDS011;58438;51.200;7.252;2023-01-13T07:02:49;7.15;;;1.13;;
64457;SDS011;58438;51.200;7.252;2023-01-13T07:05:37;4.50;;;1.10;;
64457;SDS011;58438;51.200;7.252;2023-01-13T07:08:25;8.10;;;1.63;;
64457;SDS011;58438;51.200;7.252;2023-01-13T07:11:13;5.68;;;1.45;;
64457;SDS011;58438;51.200;7.252;2023-01-13T07:14:01;4.40;;;1.27;;
64457;SDS011;58438;51.200;7.252;2023-01-13T07:17:06;5.32;;;1.23;;
64457;SDS011;58438;51.200;7.252;2023-01-13T07:19:55;6.45;;;1.92;;
64457;SDS011;58438;51.200;7.252;2023-01-13T07:22:43;7.88;;;2.25;;
64457;SDS011;58438;51.200;7.252;2023-01-13T07:25:31;6.18;;;1.60;;
64457;SDS011;58438;51.200;7.252;2023-01-13T07:28:19;7.47;;;1.55;;
64457;SDS011;58438;51.200;7.252;2023-01-13T07:31:12;4.22;;;1.30;;
64457;SDS011;58438;51.200;7.252;2023-01-13T07:34:00;4.70;;;1.65;;
64457;SDS011;58438;51.200;7.252;2023-01-13T07:36:52;6.00;;;2.20;;
64457;SDS011;58438;51.200;7.252;2023-01-13T07:39:40;1.98;;;1.02;;
64457;SDS011;58438;51.200;7.252;2023-01-13T07:42:27;6.55;;;1.45;;
64457;SDS011;58438;51.200;7.252;2023-01-13T07:45:31;3.50;;;1.40;;
64457;SDS011;58438;51.200;7.252;2023-01-13T07:48:18;4.90;;;1.33;;
64457;SDS011;58438;51.200;7.252;2023-01-13T07:51:06;3.85;;;1.33;;
64457;SDS011;58438;51.200;7.252;2023-01-13T07:53:57;7.60;;;1.63;;
64457;SDS011;58438;51.200;7.252;2023-01-13T07:56:44;6.43;;;1.42;;
64457;SDS011;58438;51.200;7.252;2023-01-13T07:59:32;6.07;;;1.42;;
64457;SDS011;58438;51.200;7.252;2023-01-13T08:02:19;9.48;;;1.63;;
64457;SDS011;58438;51.200;7.252;2023-01-13T08:05:09;3.30;;;1.40;;
64457;SDS011;58438;51.200;7.252;2023-01-13T08:08:00;7.03;;;1.50;;
64457;SDS011;58438;51.200;7.252;2023-01-13T08:10:49;7.88;;;1.67;;
64457;SDS011;58438;51.200;7.252;2023-01-13T08:13:37;6.70;;;1.42;;
64457;SDS011;58438;51.200;7.252;2023-01-13T08:16:24;5.88;;;1.15;;
64457;SDS011;58438;51.200;7.252;2023-01-13T08:19:12;7.22;;;1.70;;
64457;SDS011;58438;51.200;7.252;2023-01-13T08:22:00;4.35;;;1.20;;
64457;SDS011;58438;51.200;7.252;2023-01-13T08:24:47;4.22;;;1.40;;
64457;SDS011;58438;51.200;7.252;2023-01-13T08:27:36;4.75;;;1.40;;
64457;SDS011;58438;51.200;7.252;2023-01-13T08:30:25;8.77;;;1.50;;
64457;SDS011;58438;51.200;7.252;2023-01-13T08:33:13;2.97;;;1.08;;
64457;SDS011;58438;51.200;7.252;2023-01-13T08:36:01;8.25;;;1.40;;
64457;SDS011;58438;51.200;7.252;2023-01-13T08:38:50;8.13;;;1.50;;
64457;SDS011;58438;51.200;7.252;2023-01-13T08:41:37;7.97;;;1.40;;
64457;SDS011;58438;51.200;7.252;2023-01-13T08:44:45;5.32;;;1.42;;
64457;SDS011;58438;51.200;7.252;2023-01-13T08:47:33;17.55;;;2.25;;
64457;SDS011;58438;51.200;7.252;2023-01-13T08:50:20;8.30;;;1.80;;
64457;SDS011;58438;51.200;7.252;2023-01-13T08:53:08;4.95;;;1.55;;
64457;SDS011;58438;51.200;7.252;2023-01-13T08:55:56;4.53;;;1.95;;
64457;SDS011;58438;51.200;7.252;2023-01-13T08:58:44;6.32;;;1.90;;
64457;SDS011;58438;51.200;7.252;2023-01-13T09:01:33;9.15;;;2.55;;
64457;SDS011;58438;51.200;7.252;2023-01-13T09:04:23;12.32;;;2.00;;
64457;SDS011;58438;51.200;7.252;2023-01-13T09:07:12;3.53;;;1.45;;
64457;SDS011;58438;51.200;7.252;2023-01-13T09:10:00;19.50;;;2.03;;
64457;SDS011;58438;51.200;7.252;2023-01-13T09:12:47;5.00;;;1.70;;
64457;SDS011;58438;51.200;7.252;2023-01-13T09:15:52;4.38;;;2.00;;
64457;SDS011;58438;51.200;7.252;2023-01-13T09:18:43;13.85;;;2.22;;
64457;SDS011;58438;51.200;7.252;2023-01-13T09:21:30;7.38;;;1.55;;
64457;SDS011;58438;51.200;7.252;2023-01-13T09:24:18;4.50;;;1.33;;
64457;SDS011;58438;51.200;7.252;2023-01-13T09:27:06;4.28;;;1.80;;
64457;SDS011;58438;51.200;7.252;2023-01-13T09:29:54;13.32;;;2.35;;
64457;SDS011;58438;51.200;7.252;2023-01-13T09:32:42;13.60;;;1.85;;
64457;SDS011;58438;51.200;7.252;2023-01-13T09:35:31;6.93;;;2.22;;
64457;SDS011;58438;51.200;7.252;2023-01-13T09:38:17;6.57;;;2.13;;
64457;SDS011;58438;51.200;7.252;2023-01-13T09:41:05;8.80;;;2.25;;
64457;SDS011;58438;51.200;7.252;2023-01-13T09:44:14;7.93;;;2.53;;
64457;SDS011;58438;51.200;7.252;2023-01-13T09:47:06;7.00;;;1.65;;
64457;SDS011;58438;51.200;7.252;2023-01-13T09:50:01;12.30;;;2.20;;
64457;SDS011;58438;51.200;7.252;2023-01-13T09:53:02;7.57;;;2.20;;
64457;SDS011;58438;51.200;7.252;2023-01-13T09:55:56;6.80;;;2.50;;
64457;SDS011;58438;51.200;7.252;2023-01-13T09:58:43;10.60;;;2.40;;
64457;SDS011;58438;51.200;7.252;2023-01-13T10:01:33;8.88;;;2.00;;
64457;SDS011;58438;51.200;7.252;2023-01-13T10:04:27;6.90;;;2.10;;
64457;SDS011;58438;51.200;7.252;2023-01-13T10:07:15;6.60;;;1.77;;
64457;SDS011;58438;51.200;7.252;2023-01-13T10:10:04;9.95;;;2.42;;
64457;SDS011;58438;51.200;7.252;2023-01-13T10:12:58;7.07;;;2.45;;
64457;SDS011;58438;51.200;7.252;2023-01-13T10:16:04;10.45;;;2.08;;
64457;SDS011;58438;51.200;7.252;2023-01-13T10:19:04;8.38;;;2.30;;
64457;SDS011;58438;51.200;7.252;2023-01-13T10:22:09;8.27;;;1.88;;
64457;SDS011;58438;51.200;7.252;2023-01-13T10:25:13;12.23;;;3.15;;
64457;SDS011;58438;51.200;7.252;2023-01-13T10:28:07;6.60;;;1.52;;
64457;SDS011;58438;51.200;7.252;2023-01-13T10:30:56;10.48;;;3.03;;
64457;SDS011;58438;51.200;7.252;2023-01-13T10:33:45;14.73;;;2.90;;
64457;SDS011;58438;51.200;7.252;2023-01-13T10:36:32;9.00;;;2.28;;
64457;SDS011;58438;51.200;7.252;2023-01-13T10:39:20;9.38;;;2.75;;
64457;SDS011;58438;51.200;7.252;2023-01-13T10:42:12;7.85;;;2.05;;
64457;SDS011;58438;51.200;7.252;2023-01-13T10:45:02;11.43;;;2.17;;
64457;SDS011;58438;51.200;7.252;2023-01-13T10:48:03;11.35;;;2.20;;
64457;SDS011;58438;51.200;7.252;2023-01-13T10:50:53;4.82;;;1.90;;
64457;SDS011;58438;51.200;7.252;2023-01-13T10:53:44;6.70;;;2.20;;
64457;SDS011;58438;51.200;7.252;2023-01-13T10:56:32;12.13;;;2.97;;
64457;SDS011;58438;51.200;7.252;2023-01-13T10:59:22;5.50;;;2.50;;
64457;SDS011;58438;51.200;7.252;2023-01-13T11:02:19;14.98;;;2.63;;
64457;SDS011;58438;51.200;7.252;2023-01-13T11:05:16;6.15;;;1.90;;
64457;SDS011;58438;51.200;7.252;2023-01-13T11:08:12;9.43;;;1.92;;
64457;SDS011;58438;51.200;7.252;2023-01-13T11:11:21;9.82;;;2.22;;
64457;SDS011;58438;51.200;7.252;2023-01-13T11:14:14;11.95;;;1.80;;
64457;SDS011;58438;51.200;7.252;2023-01-13T11:17:31;9.35;;;1.85;;
64457;SDS011;58438;51.200;7.252;2023-01-13T11:20:24;15.60;;;2.25;;
64457;SDS011;58438;51.200;7.252;2023-01-13T11:23:17;7.07;;;1.90;;
64457;SDS011;58438;51.200;7.252;2023-01-13T11:26:13;10.52;;;2.55;;
64457;SDS011;58438;51.200;7.252;2023-01-13T11:29:07;8.82;;;1.85;;
64457;SDS011;58438;51.200;7.252;2023-01-13T11:31:59;11.20;;;2.13;;
64457;SDS011;58438;51.200;7.252;2023-01-13T11:34:56;10.63;;;2.65;;
64457;SDS011;58438;51.200;7.252;2023-01-13T11:37:50;7.88;;;1.73;;
64457;SDS011;58438;51.200;7.252;2023-01-13T11:40:42;11.98;;;2.58;;
64457;SDS011;58438;51.200;7.252;2023-01-13T11:43:34;4.60;;;1.77;;
64457;SDS011;58438;51.200;7.252;2023-01-13T11:46:27;8.55;;;2.40;;
64457;SDS011;58438;51.200;7.252;2023-01-13T11:49:18;11.63;;;3.45;;
64457;SDS011;58438;51.200;7.252;2023-01-13T11:55:04;4.50;;;1.52;;
64457;SDS011;58438;51.200;7.252;2023-01-13T11:58:00;10.07;;;2.65;;
64457;SDS011;58438;51.200;7.252;2023-01-13T12:00:56;5.40;;;2.05;;
64457;SDS011;58438;51.200;7.252;2023-01-13T12:03:52;13.50;;;3.15;;
64457;SDS011;58438;51.200;7.252;2023-01-13T12:06:51;9.23;;;2.08;;
64457;SDS011;58438;51.200;7.252;2023-01-13T12:09:47;12.25;;;2.17;;
64457;SDS011;58438;51.200;7.252;2023-01-13T12:12:47;9.23;;;3.17;;
64457;SDS011;58438;51.200;7.252;2023-01-13T12:15:57;9.70;;;1.85;;
64457;SDS011;58438;51.200;7.252;2023-01-13T12:19:09;8.45;;;1.73;;
64457;SDS011;58438;51.200;7.252;2023-01-13T12:22:08;11.55;;;2.22;;
64457;SDS011;58438;51.200;7.252;2023-01-13T12:25:01;10.35;;;2.75;;
64457;SDS011;58438;51.200;7.252;2023-01-13T12:27:58;10.88;;;2.20;;
64457;SDS011;58438;51.200;7.252;2023-01-13T12:30:49;10.40;;;2.55;;
64457;SDS011;58438;51.200;7.252;2023-01-13T12:33:46;6.35;;;2.10;;
64457;SDS011;58438;51.200;7.252;2023-01-13T12:36:46;11.45;;;2.50;;
64457;SDS011;58438;51.200;7.252;2023-01-13T12:39:42;10.15;;;1.95;;
64457;SDS011;58438;51.200;7.252;2023-01-13T12:42:40;6.95;;;1.63;;
64457;SDS011;58438;51.200;7.252;2023-01-13T12:45:51;8.32;;;2.15;;
64457;SDS011;58438;51.200;7.252;2023-01-13T12:48:45;7.50;;;1.90;;
64457;SDS011;58438;51.200;7.252;2023-01-13T12:52:07;8.68;;;1.98;;
64457;SDS011;58438;51.200;7.252;2023-01-13T12:55:10;4.30;;;1.73;;
64457;SDS011;58438;51.200;7.252;2023-01-13T12:58:15;10.18;;;2.28;;
64457;SDS011;58438;51.200;7.252;2023-01-13T13:01:05;6.55;;;1.88;;
64457;SDS011;58438;51.200;7.252;2023-01-13T13:04:07;7.50;;;1.98;;
64457;SDS011;58438;51.200;7.252;2023-01-13T13:07:02;8.95;;;2.08;;
64457;SDS011;58438;51.200;7.252;2023-01-13T13:09:55;5.35;;;1.77;;
64457;SDS011;58438;51.200;7.252;2023-01-13T13:12:51;10.52;;;1.80;;
64457;SDS011;58438;51.200;7.252;2023-01-13T13:16:33;11.52;;;2.75;;
64457;SDS011;58438;51.200;7.252;2023-01-13T13:19:39;3.85;;;1.55;;
64457;SDS011;58438;51.200;7.252;2023-01-13T13:22:37;6.40;;;2.17;;
64457;SDS011;58438;51.200;7.252;2023-01-13T13:25:29;4.75;;;1.50;;
64457;SDS011;58438;51.200;7.252;2023-01-13T13:28:17;6.25;;;1.75;;
64457;SDS011;58438;51.200;7.252;2023-01-13T13:31:13;5.53;;;1.80;;
64457;SDS011;58438;51.200;7.252;2023-01-13T13:34:10;5.22;;;1.80;;
64457;SDS011;58438;51.200;7.252;2023-01-13T13:37:07;5.28;;;1.80;;
64457;SDS011;58438;51.200;7.252;2023-01-13T13:40:07;4.32;;;1.75;;
64457;SDS011;58438;51.200;7.252;2023-01-13T13:43:13;9.85;;;1.95;;
64457;SDS011;58438;51.200;7.252;2023-01-13T13:46:29;5.13;;;1.83;;
64457;SDS011;58438;51.200;7.252;2023-01-13T13:49:36;3.40;;;2.28;;
64457;SDS011;58438;51.200;7.252;2023-01-13T13:52:26;9.95;;;1.90;;
64457;SDS011;58438;51.200;7.252;2023-01-13T13:55:17;12.65;;;2.20;;
64457;SDS011;58438;51.200;7.252;2023-01-13T13:58:11;7.63;;;2.60;;
64457;SDS011;58438;51.200;7.252;2023-01-13T14:01:03;8.50;;;1.92;;
64457;SDS011;58438;51.200;7.252;2023-01-13T14:04:05;5.97;;;2.03;;
64457;SDS011;58438;51.200;7.252;2023-01-13T14:06:53;6.20;;;2.60;;
64457;SDS011;58438;51.200;7.252;2023-01-13T14:09:43;15.45;;;2.58;;
64457;SDS011;58438;51.200;7.252;2023-01-13T14:12:35;9.95;;;2.88;;
64457;SDS011;58438;51.200;7.252;2023-01-13T14:15:26;8.00;;;2.92;;
64457;SDS011;58438;51.200;7.252;2023-01-13T14:18:18;6.55;;;2.15;;
64457;SDS011;58438;51.200;7.252;2023-01-13T14:21:16;9.10;;;2.35;;
64457;SDS011;58438;51.200;7.252;2023-01-13T14:24:11;8.07;;;2.80;;
64457;SDS011;58438;51.200;7.252;2023-01-13T14:27:08;9.63;;;2.30;;
64457;SDS011;58438;51.200;7.252;2023-01-13T14:29:57;12.45;;;2.80;;
64457;SDS011;58438;51.200;7.252;2023-01-13T14:32:46;15.25;;;3.38;;
64457;SDS011;58438;51.200;7.252;2023-01-13T14:35:34;11.60;;;2.83;;
64457;SDS011;58438;51.200;7.252;2023-01-13T14:38:23;8.80;;;1.95;;
64457;SDS011;58438;51.200;7.252;2023-01-13T14:41:11;4.95;;;1.52;;
64457;SDS011;58438;51.200;7.252;2023-01-13T14:44:07;5.40;;;2.28;;
64457;SDS011;58438;51.200;7.252;2023-01-13T14:47:03;5.93;;;3.08;;
64457;SDS011;58438;51.200;7.252;2023-01-13T14:50:05;8.85;;;2.58;;
64457;SDS011;58438;51.200;7.252;2023-01-13T14:52:53;7.05;;;2.50;;
64457;SDS011;58438;51.200;7.252;2023-01-13T14:55:43;7.70;;;2.55;;
64457;SDS011;58438;51.200;7.252;2023-01-13T14:58:30;6.13;;;1.90;;
64457;SDS011;58438;51.200;7.252;2023-01-13T15:01:25;5.38;;;2.78;;
64457;SDS011;58438;51.200;7.252;2023-01-13T15:04:14;9.02;;;2.38;;
64457;SDS011;58438;51.200;7.252;2023-01-13T15:07:03;7.15;;;1.95;;
64457;SDS011;58438;51.200;7.252;2023-01-13T15:09:52;11.90;;;2.80;;
64457;SDS011;58438;51.200;7.252;2023-01-13T15:12:42;12.80;;;3.38;;
64457;SDS011;58438;51.200;7.252;2023-01-13T15:15:30;10.55;;;2.58;;
64457;SDS011;58438;51.200;7.252;2023-01-13T15:18:19;8.02;;;3.38;;
64457;SDS011;58438;51.200;7.252;2023-01-13T15:21:07;12.60;;;2.80;;
64457;SDS011;58438;51.200;7.252;2023-01-13T15:23:55;11.27;;;2.63;;
64457;SDS011;58438;51.200;7.252;2023-01-13T15:26:43;11.20;;;3.20;;
64457;SDS011;58438;51.200;7.252;2023-01-13T15:29:32;10.45;;;2.40;;
64457;SDS011;58438;51.200;7.252;2023-01-13T15:32:20;10.93;;;2.67;;
64457;SDS011;58438;51.200;7.252;2023-01-13T15:35:08;7.35;;;2.60;;
64457;SDS011;58438;51.200;7.252;2023-01-13T15:37:59;5.65;;;2.53;;
64457;SDS011;58438;51.200;7.252;2023-01-13T15:40:46;5.22;;;2.75;;
64457;SDS011;58438;51.200;7.252;2023-01-13T15:43:35;7.35;;;2.72;;
64457;SDS011;58438;51.200;7.252;2023-01-13T15:46:41;7.85;;;4.25;;
64457;SDS011;58438;51.200;7.252;2023-01-13T15:49:33;6.07;;;2.92;;
64457;SDS011;58438;51.200;7.252;2023-01-13T15:52:21;10.25;;;3.58;;
64457;SDS011;58438;51.200;7.252;2023-01-13T15:55:09;10.85;;;3.10;;
64457;SDS011;58438;51.200;7.252;2023-01-13T15:57:57;6.43;;;2.78;;
64457;SDS011;58438;51.200;7.252;2023-01-13T16:00:44;9.10;;;3.10;;
64457;SDS011;58438;51.200;7.252;2023-01-13T16:03:33;17.30;;;4.10;;
64457;SDS011;58438;51.200;7.252;2023-01-13T16:06:22;9.35;;;3.28;;
64457;SDS011;58438;51.200;7.252;2023-01-13T16:09:13;10.68;;;3.58;;
64457;SDS011;58438;51.200;7.252;2023-01-13T16:12:01;7.60;;;2.75;;
64457;SDS011;58438;51.200;7.252;2023-01-13T16:14:49;8.98;;;2.50;;
64457;SDS011;58438;51.200;7.252;2023-01-13T16:17:37;7.90;;;3.20;;
64457;SDS011;58438;51.200;7.252;2023-01-13T16:20:26;17.35;;;3.63;;
64457;SDS011;58438;51.200;7.252;2023-01-13T16:23:13;12.95;;;3.60;;
64457;SDS011;58438;51.200;7.252;2023-01-13T16:26:03;9.50;;;3.13;;
64457;SDS011;58438;51.200;7.252;2023-01-13T16:28:51;10.75;;;3.10;;
64457;SDS011;58438;51.200;7.252;2023-01-13T16:31:39;11.63;;;3.63;;
64457;SDS011;58438;51.200;7.252;2023-01-13T16:34:27;15.02;;;3.40;;
64457;SDS011;58438;51.200;7.252;2023-01-13T16:37:18;13.13;;;3.50;;
64457;SDS011;58438;51.200;7.252;2023-01-13T16:40:08;9.68;;;3.35;;
64457;SDS011;58438;51.200;7.252;2023-01-13T16:43:03;10.73;;;3.80;;
64457;SDS011;58438;51.200;7.252;2023-01-13T16:45:51;6.32;;;3.42;;
64457;SDS011;58438;51.200;7.252;2023-01-13T16:48:38;9.63;;;3.40;;
64457;SDS011;58438;51.200;7.252;2023-01-13T16:51:25;10.55;;;3.05;;
64457;SDS011;58438;51.200;7.252;2023-01-13T16:54:14;10.70;;;3.40;;
64457;SDS011;58438;51.200;7.252;2023-01-13T16:57:02;13.07;;;3.30;;
64457;SDS011;58438;51.200;7.252;2023-01-13T16:59:51;11.60;;;3.00;;
64457;SDS011;58438;51.200;7.252;2023-01-13T17:02:38;11.32;;;3.17;;
64457;SDS011;58438;51.200;7.252;2023-01-13T17:05:26;7.28;;;2.67;;
64457;SDS011;58438;51.200;7.252;2023-01-13T17:08:14;9.07;;;3.30;;
64457;SDS011;58438;51.200;7.252;2023-01-13T17:11:05;14.60;;;2.78;;
64457;SDS011;58438;51.200;7.252;2023-01-13T17:13:53;7.40;;;2.80;;
64457;SDS011;58438;51.200;7.252;2023-01-13T17:16:40;11.90;;;3.83;;
64457;SDS011;58438;51.200;7.252;2023-01-13T17:19:28;7.63;;;3.13;;
64457;SDS011;58438;51.200;7.252;2023-01-13T17:22:16;10.95;;;3.20;;